Time;durP1;ratioP1;P1;durP2;ratioP2;P2;SDS_P1;SDS_P2;PMS_P1;PMS_P2;Temp;Humidity;BMP_temperature;BMP_pressure;BME280_temperature;BME280_humidity;BME280_pressure;Samples;Min_cycle;Max_cycle;Signal;HPM_P1;HPM_P2
2022/11/11 00:01:02;;;;;;;7.95;2.10;;;9.90;99.90;;;;;;4939300;28;20030;-77
2022/11/11 00:03:28;;;;;;;3.55;1.60;;;9.90;99.90;;;;;;4968877;28;20110;-78
2022/11/11 00:05:54;;;;;;;7.90;2.03;;;9.90;99.90;;;;;;4947167;28;20122;-78
2022/11/11 00:08:19;;;;;;;3.95;1.70;;;10.00;99.90;;;;;;4974492;28;20049;-78
2022/11/11 00:10:45;;;;;;;5.80;2.13;;;10.10;99.90;;;;;;4952389;28;20034;-78
2022/11/11 00:13:11;;;;;;;4.00;2.25;;;9.90;99.90;;;;;;4969532;28;20076;-78
2022/11/11 00:15:37;;;;;;;5.57;2.13;;;10.00;99.90;;;;;;4953245;28;20398;-78
2022/11/11 00:26:20;;;;;;;3.60;2.22;;;9.80;99.90;;;;;;4949875;28;20501;-78
2022/11/11 00:28:46;;;;;;;7.38;2.97;;;9.80;99.90;;;;;;4979061;28;20034;-77
2022/11/11 00:31:12;;;;;;;5.63;3.03;;;9.80;99.90;;;;;;4956363;28;20019;-78
2022/11/11 00:33:38;;;;;;;7.43;2.28;;;9.70;99.90;;;;;;4968496;28;20469;-78
2022/11/11 00:36:04;;;;;;;7.68;2.75;;;9.60;99.90;;;;;;4955456;28;20118;-78
2022/11/11 00:38:45;;;;;;;4.78;2.63;;;9.60;99.90;;;;;;4957101;28;20481;-78
2022/11/11 00:41:18;;;;;;;4.38;2.22;;;9.60;99.90;;;;;;4950619;28;20090;-78
2022/11/11 00:43:45;;;;;;;7.22;2.70;;;9.60;99.90;;;;;;4980533;28;20856;-78
2022/11/11 00:51:39;;;;;;;8.65;2.20;;;9.60;99.90;;;;;;4954461;28;20030;-78
2022/11/11 00:54:05;;;;;;;6.38;2.58;;;9.70;99.90;;;;;;4946344;28;20035;-77
2022/11/11 00:56:31;;;;;;;4.57;2.10;;;9.70;99.90;;;;;;4937842;28;20050;-78
2022/11/11 00:58:56;;;;;;;4.13;2.72;;;9.60;99.90;;;;;;4965767;28;20039;-77
2022/11/11 01:01:22;;;;;;;5.28;2.45;;;9.60;99.90;;;;;;4962608;28;20046;-77
2022/11/11 01:03:47;;;;;;;6.00;2.35;;;9.60;99.90;;;;;;4950417;28;20039;-77
2022/11/11 01:06:13;;;;;;;5.90;2.40;;;9.60;99.90;;;;;;4947537;28;20034;-77
2022/11/11 01:08:39;;;;;;;4.30;2.35;;;9.60;99.90;;;;;;4967664;28;20047;-77
2022/11/11 01:11:14;;;;;;;6.90;2.10;;;9.60;99.90;;;;;;4937588;28;20069;-77
2022/11/11 01:13:40;;;;;;;4.20;2.10;;;9.60;99.90;;;;;;4953889;28;20027;-77
2022/11/11 01:16:07;;;;;;;7.10;2.65;;;9.60;99.90;;;;;;4929966;28;20541;-77
2022/11/11 01:18:32;;;;;;;4.25;1.30;;;9.50;99.90;;;;;;4919540;28;20528;-78
2022/11/11 01:21:06;;;;;;;7.93;2.25;;;9.60;99.90;;;;;;4941516;28;20034;-77
2022/11/11 01:23:32;;;;;;;3.45;1.58;;;9.60;99.90;;;;;;4978065;28;20031;-77
2022/11/11 01:26:13;;;;;;;4.78;2.63;;;9.60;99.90;;;;;;4951790;28;20035;-78
2022/11/11 01:28:38;;;;;;;4.88;1.98;;;9.60;99.90;;;;;;4964414;28;20097;-77
2022/11/11 01:31:05;;;;;;;4.20;1.88;;;9.60;99.90;;;;;;4932316;28;20561;-77
2022/11/11 01:33:31;;;;;;;3.35;2.08;;;9.60;99.90;;;;;;4946266;28;20027;-78
2022/11/11 01:36:05;;;;;;;4.63;1.95;;;9.60;99.90;;;;;;4940075;28;20035;-78
2022/11/11 01:38:30;;;;;;;3.85;2.17;;;9.60;99.90;;;;;;4934228;28;20041;-78
2022/11/11 01:40:56;;;;;;;2.20;1.40;;;9.60;99.90;;;;;;4951614;28;20738;-77
2022/11/11 01:43:22;;;;;;;5.25;2.08;;;9.50;99.90;;;;;;4965489;28;20134;-78
2022/11/11 01:45:52;;;;;;;5.13;2.35;;;9.60;99.90;;;;;;4952727;28;20128;-78
2022/11/11 01:51:11;;;;;;;8.85;1.90;;;9.50;99.90;;;;;;4955520;28;20864;-78
2022/11/11 01:53:37;;;;;;;4.25;1.67;;;9.50;99.90;;;;;;4958024;28;20041;-78
2022/11/11 01:56:02;;;;;;;3.17;1.77;;;9.60;99.90;;;;;;4934460;28;20366;-77
2022/11/11 01:58:28;;;;;;;3.50;1.90;;;9.60;99.90;;;;;;4983691;28;20159;-78
2022/11/11 02:00:54;;;;;;;5.93;2.67;;;9.60;99.90;;;;;;4955965;28;20035;-79
2022/11/11 02:03:20;;;;;;;3.63;1.83;;;9.50;99.90;;;;;;4957061;28;20027;-78
2022/11/11 02:05:45;;;;;;;2.72;1.75;;;9.60;99.90;;;;;;4967847;28;20035;-78
2022/11/11 02:08:31;;;;;;;2.45;1.63;;;9.60;99.90;;;;;;4969042;28;20146;-78
2022/11/11 02:11:00;;;;;;;5.28;2.00;;;9.60;99.90;;;;;;4969562;28;20497;-78
2022/11/11 02:16:10;;;;;;;6.10;1.85;;;9.60;99.90;;;;;;4947104;28;20037;-78
2022/11/11 02:18:36;;;;;;;3.53;2.00;;;9.60;99.90;;;;;;4988706;28;20118;-77
2022/11/11 02:21:01;;;;;;;2.85;1.73;;;9.60;99.90;;;;;;4963404;28;20034;-78
2022/11/11 02:23:30;;;;;;;5.43;2.28;;;9.60;99.90;;;;;;4969511;28;20113;-77
2022/11/11 02:25:55;;;;;;;6.55;2.22;;;9.60;99.90;;;;;;4973748;28;20394;-77
2022/11/11 02:28:22;;;;;;;6.43;2.30;;;9.60;99.90;;;;;;4953405;28;20038;-77
2022/11/11 02:30:48;;;;;;;5.85;2.20;;;9.60;99.90;;;;;;4982993;28;20090;-77
2022/11/11 02:33:14;;;;;;;3.15;2.00;;;9.50;99.90;;;;;;4957071;28;20038;-78
2022/11/11 02:35:44;;;;;;;2.90;1.83;;;9.60;99.90;;;;;;4940537;28;20513;-77
2022/11/11 02:38:12;;;;;;;4.10;1.52;;;9.60;99.90;;;;;;4933815;28;20564;-77
2022/11/11 02:41:55;;;;;;;5.57;2.67;;;9.60;99.90;;;;;;4982882;28;20085;-77
2022/11/11 02:43:28;;;;;;;3.88;1.83;;;9.60;99.90;;;;;;4938229;28;20069;-78
2022/11/11 02:45:53;;;;;;;3.45;1.80;;;9.60;99.90;;;;;;4969508;28;20054;-77
2022/11/11 02:48:19;;;;;;;7.35;2.60;;;9.50;99.90;;;;;;4966673;28;20038;-77
2022/11/11 02:50:45;;;;;;;4.20;1.83;;;9.50;99.90;;;;;;4949256;28;20072;-77
2022/11/11 02:53:11;;;;;;;4.45;2.13;;;9.50;99.90;;;;;;4949729;28;20035;-78
2022/11/11 02:55:36;;;;;;;9.50;2.50;;;9.40;99.90;;;;;;4968197;28;20926;-78
2022/11/11 02:58:02;;;;;;;7.28;2.20;;;9.40;99.90;;;;;;4933912;28;20042;-77
2022/11/11 03:00:27;;;;;;;3.38;2.47;;;9.40;99.90;;;;;;4949229;28;20027;-77
2022/11/11 03:02:53;;;;;;;4.10;1.95;;;9.50;99.90;;;;;;4964085;28;20046;-77
2022/11/11 03:05:19;;;;;;;6.45;2.63;;;9.50;99.90;;;;;;4952251;28;20023;-78
2022/11/11 03:07:44;;;;;;;2.50;1.40;;;9.50;99.90;;;;;;4948734;28;20348;-77
2022/11/11 03:10:10;;;;;;;4.32;2.40;;;9.40;99.90;;;;;;4932020;28;20352;-77
2022/11/11 03:12:36;;;;;;;3.20;2.00;;;9.40;99.90;;;;;;4947972;28;20097;-78
2022/11/11 03:15:02;;;;;;;5.72;2.92;;;9.50;99.90;;;;;;4933706;28;20058;-77
2022/11/11 03:17:40;;;;;;;4.93;1.67;;;9.40;99.90;;;;;;4949591;28;20035;-77
2022/11/11 03:23:11;;;;;;;2.58;1.67;;;9.50;99.90;;;;;;4963945;28;20419;-77
2022/11/11 03:25:44;;;;;;;3.75;1.75;;;9.40;99.90;;;;;;4967120;28;20098;-79
2022/11/11 03:28:11;;;;;;;4.07;2.05;;;9.40;99.90;;;;;;4950569;28;20101;-81
2022/11/11 03:30:41;;;;;;;3.17;1.25;;;9.40;99.90;;;;;;4950952;28;20034;-80
2022/11/11 03:33:06;;;;;;;5.15;2.00;;;9.40;99.90;;;;;;4949552;28;20035;-81
2022/11/11 03:35:32;;;;;;;5.55;2.40;;;9.40;99.90;;;;;;4980556;28;20035;-77
2022/11/11 03:38:22;;;;;;;4.60;2.03;;;9.40;99.90;;;;;;4947678;28;20376;-77
2022/11/11 03:40:49;;;;;;;2.60;1.70;;;9.30;99.90;;;;;;4941023;28;20031;-77
2022/11/11 03:43:15;;;;;;;2.15;1.70;;;9.30;99.90;;;;;;4948006;28;20510;-77
2022/11/11 03:45:42;;;;;;;6.22;2.40;;;9.30;99.90;;;;;;4964892;28;20047;-78
2022/11/11 03:48:07;;;;;;;5.50;2.17;;;9.20;99.90;;;;;;4955467;28;20386;-77
2022/11/11 03:50:39;;;;;;;5.35;2.20;;;9.30;99.90;;;;;;4951713;28;20038;-77
2022/11/11 03:53:04;;;;;;;3.60;1.48;;;9.20;99.90;;;;;;4945465;28;20036;-77
2022/11/11 03:55:30;;;;;;;2.03;1.50;;;9.10;99.90;;;;;;4933162;28;20101;-77
2022/11/11 03:57:55;;;;;;;2.97;1.98;;;9.10;99.90;;;;;;4953315;28;20096;-78
2022/11/11 04:00:23;;;;;;;6.15;1.88;;;9.10;99.90;;;;;;4951669;28;20051;-77
2022/11/11 04:11:14;;;;;;;2.58;1.50;;;9.00;99.90;;;;;;4937578;28;20604;-77
2022/11/11 04:16:24;;;;;;;4.20;2.13;;;9.10;99.90;;;;;;4949783;28;20049;-77
2022/11/11 04:21:42;;;;;;;4.20;1.00;;;9.00;99.90;;;;;;4978961;28;20399;-77
2022/11/11 04:27:07;;;;;;;5.47;1.77;;;9.10;99.90;;;;;;4949198;28;20481;-77
2022/11/11 04:29:33;;;;;;;4.35;2.05;;;9.10;99.90;;;;;;4963074;28;20031;-77
2022/11/11 04:34:46;;;;;;;4.47;1.63;;;9.00;99.90;;;;;;4975396;28;20508;-77
2022/11/11 04:37:11;;;;;;;3.63;1.80;;;9.00;99.90;;;;;;4965880;28;20039;-77
2022/11/11 04:42:22;;;;;;;4.82;1.83;;;9.00;99.90;;;;;;4951862;28;20093;-77
2022/11/11 04:47:32;;;;;;;5.47;2.35;;;9.00;99.90;;;;;;4967580;28;20500;-77
2022/11/11 04:49:57;;;;;;;3.80;1.40;;;9.00;99.90;;;;;;4948878;28;20031;-77
2022/11/11 04:52:26;;;;;;;8.52;3.38;;;8.90;99.90;;;;;;4952074;28;20135;-78
2022/11/11 04:57:46;;;;;;;4.72;1.77;;;8.90;99.90;;;;;;4971287;28;20070;-77
2022/11/11 05:00:16;;;;;;;3.50;1.45;;;8.90;99.90;;;;;;4944500;28;20055;-77
2022/11/11 05:05:26;;;;;;;4.22;2.17;;;8.80;99.90;;;;;;4950351;28;20073;-77
2022/11/11 05:10:36;;;;;;;5.65;1.85;;;8.70;99.90;;;;;;4948900;28;20066;-77
2022/11/11 05:21:19;;;;;;;4.60;2.17;;;8.60;99.90;;;;;;4974627;28;20082;-77
2022/11/11 05:26:29;;;;;;;6.00;2.28;;;8.50;99.90;;;;;;4952747;28;20034;-77
2022/11/11 05:28:55;;;;;;;2.50;1.80;;;8.50;99.90;;;;;;4966549;28;20039;-77
2022/11/11 05:31:20;;;;;;;3.22;2.00;;;8.60;99.90;;;;;;4954315;28;20706;-77
2022/11/11 05:33:46;;;;;;;5.18;2.15;;;8.50;99.90;;;;;;4965815;28;20024;-77
2022/11/11 05:36:11;;;;;;;8.63;1.92;;;8.60;99.90;;;;;;4936570;28;20882;-77
2022/11/11 05:38:37;;;;;;;5.50;2.17;;;8.50;99.90;;;;;;4965459;28;20039;-77
2022/11/11 05:41:02;;;;;;;3.30;2.22;;;8.40;99.90;;;;;;4953545;28;20514;-77
2022/11/11 05:43:28;;;;;;;5.53;2.20;;;8.30;99.90;;;;;;4950481;28;20123;-76
2022/11/11 05:45:53;;;;;;;5.47;3.13;;;8.40;99.90;;;;;;4957262;28;20506;-77
2022/11/11 05:48:19;;;;;;;6.72;2.35;;;8.40;99.90;;;;;;4966641;28;20435;-77
2022/11/11 05:50:44;;;;;;;5.10;2.03;;;8.20;99.90;;;;;;4967316;28;20035;-77
2022/11/11 05:53:10;;;;;;;2.20;1.77;;;8.10;99.90;;;;;;4953788;28;20034;-78
2022/11/11 05:55:35;;;;;;;5.40;2.97;;;8.20;99.90;;;;;;4963770;28;20081;-77
2022/11/11 05:58:01;;;;;;;5.88;2.40;;;8.20;99.90;;;;;;4934256;28;20030;-77
2022/11/11 06:00:26;;;;;;;5.07;2.88;;;8.10;99.90;;;;;;4963820;28;20039;-77
2022/11/11 06:02:52;;;;;;;5.47;2.63;;;8.10;99.90;;;;;;4938108;28;20840;-77
2022/11/11 06:05:17;;;;;;;5.78;3.25;;;8.00;99.90;;;;;;4962665;28;20027;-77
2022/11/11 06:07:43;;;;;;;4.47;2.30;;;7.70;99.90;;;;;;4978599;28;20043;-77
2022/11/11 06:13:08;;;;;;;2.47;1.80;;;7.80;99.90;;;;;;4956003;28;20038;-77
2022/11/11 06:15:37;;;;;;;5.57;2.85;;;7.90;99.90;;;;;;4980409;28;20707;-77
2022/11/11 06:18:03;;;;;;;6.30;2.25;;;7.80;99.90;;;;;;4947238;28;20037;-76
2022/11/11 06:20:28;;;;;;;7.10;3.10;;;7.60;99.90;;;;;;4968455;28;20030;-77
2022/11/11 06:22:57;;;;;;;8.88;2.75;;;7.60;99.90;;;;;;4950161;28;20481;-77
2022/11/11 06:28:10;;;;;;;6.90;2.22;;;7.70;99.90;;;;;;4953489;28;20089;-77
2022/11/11 06:30:36;;;;;;;6.85;3.50;;;7.60;99.90;;;;;;4967483;28;20042;-77
2022/11/11 06:33:01;;;;;;;7.45;3.50;;;7.60;99.90;;;;;;4949664;28;20030;-77
2022/11/11 06:35:27;;;;;;;4.63;2.47;;;7.50;99.90;;;;;;4948856;28;20478;-77
2022/11/11 06:37:53;;;;;;;6.43;3.17;;;7.40;99.90;;;;;;4967495;28;20043;-76
2022/11/11 06:40:18;;;;;;;7.95;3.70;;;7.40;99.90;;;;;;4954423;28;20035;-77
2022/11/11 06:42:44;;;;;;;6.47;2.53;;;7.50;99.90;;;;;;4946591;28;20046;-77
2022/11/11 06:45:09;;;;;;;7.47;3.10;;;7.50;99.90;;;;;;4947137;28;20027;-77
2022/11/11 06:47:35;;;;;;;5.03;2.10;;;7.60;99.90;;;;;;4964401;28;20031;-77
2022/11/11 06:50:00;;;;;;;4.18;2.42;;;7.60;99.90;;;;;;4938277;28;20045;-77
2022/11/11 06:52:26;;;;;;;4.32;2.40;;;7.60;99.90;;;;;;4963232;28;20462;-78
2022/11/11 06:54:52;;;;;;;4.75;2.92;;;7.60;99.90;;;;;;4931130;28;20487;-77
2022/11/11 06:57:17;;;;;;;6.00;2.75;;;7.60;99.90;;;;;;4948741;28;20623;-77
2022/11/11 06:59:43;;;;;;;4.22;2.90;;;7.50;99.90;;;;;;4965403;28;20537;-77
2022/11/11 07:02:12;;;;;;;8.40;2.83;;;7.60;99.90;;;;;;4948621;28;20462;-77
2022/11/11 07:04:37;;;;;;;10.93;3.72;;;7.50;99.90;;;;;;4948647;28;20050;-77
2022/11/11 07:07:03;;;;;;;10.55;3.58;;;7.50;99.90;;;;;;4961435;28;20027;-77
2022/11/11 07:09:28;;;;;;;5.72;2.28;;;7.50;99.90;;;;;;4967299;28;20065;-78
2022/11/11 07:11:54;;;;;;;5.90;2.85;;;7.50;99.90;;;;;;4955962;28;20027;-77
2022/11/11 07:14:19;;;;;;;7.93;3.67;;;7.40;99.90;;;;;;4935243;28;20578;-78
2022/11/11 07:16:45;;;;;;;7.38;3.45;;;7.40;99.90;;;;;;4934025;28;20039;-77
2022/11/11 07:19:10;;;;;;;5.20;2.70;;;7.30;99.90;;;;;;4973481;28;20135;-77
2022/11/11 07:21:36;;;;;;;10.23;3.95;;;7.40;99.90;;;;;;4961581;28;20093;-77
2022/11/11 07:24:01;;;;;;;3.97;2.53;;;7.40;99.90;;;;;;4936967;28;20109;-77
2022/11/11 07:26:27;;;;;;;6.03;3.03;;;7.60;99.90;;;;;;4948312;28;20117;-77
2022/11/11 07:28:52;;;;;;;4.45;2.47;;;7.60;99.90;;;;;;4950534;28;20098;-77
2022/11/11 07:31:18;;;;;;;3.50;2.50;;;7.60;99.90;;;;;;4949299;28;20039;-77
2022/11/11 07:33:43;;;;;;;5.47;2.47;;;7.80;99.90;;;;;;4951113;28;20062;-76
2022/11/11 07:36:09;;;;;;;7.97;2.40;;;7.80;99.90;;;;;;4974177;28;20035;-77
2022/11/11 07:38:34;;;;;;;5.05;2.33;;;7.80;99.90;;;;;;4975719;28;20039;-77
2022/11/11 07:41:00;;;;;;;4.97;2.90;;;7.80;99.90;;;;;;4924595;28;20042;-77
2022/11/11 07:43:25;;;;;;;4.68;2.60;;;7.90;99.90;;;;;;4934497;28;20123;-77
2022/11/11 07:45:51;;;;;;;8.02;2.72;;;7.90;99.90;;;;;;4948556;28;20075;-77
2022/11/11 07:48:16;;;;;;;8.60;2.63;;;7.80;99.90;;;;;;4960739;28;20113;-78
2022/11/11 07:50:44;;;;;;;5.47;2.53;;;7.90;99.90;;;;;;4950010;28;20118;-78
2022/11/11 07:53:10;;;;;;;10.75;3.22;;;8.00;99.90;;;;;;4963975;28;20069;-78
2022/11/11 07:55:35;;;;;;;6.30;2.55;;;8.00;99.90;;;;;;4935127;28;20051;-78
2022/11/11 07:58:01;;;;;;;5.22;2.10;;;8.10;99.90;;;;;;4932578;28;20035;-78
2022/11/11 08:00:26;;;;;;;6.95;2.72;;;8.20;99.90;;;;;;4949074;28;20042;-78
2022/11/11 08:02:52;;;;;;;6.78;2.92;;;8.20;99.90;;;;;;4954445;28;20039;-78
2022/11/11 08:05:17;;;;;;;5.10;2.88;;;8.20;99.90;;;;;;4950052;28;20505;-78
2022/11/11 08:07:43;;;;;;;4.45;2.67;;;8.30;99.90;;;;;;4934023;28;20074;-77
2022/11/11 08:10:10;;;;;;;6.68;2.92;;;8.30;99.90;;;;;;4948408;28;20043;-78
2022/11/11 08:15:19;;;;;;;6.05;2.28;;;8.50;99.90;;;;;;4949734;28;20038;-78
2022/11/11 08:17:45;;;;;;;5.30;2.53;;;8.60;99.90;;;;;;4940814;28;20035;-77
2022/11/11 08:20:10;;;;;;;5.47;2.10;;;8.60;99.90;;;;;;4960991;28;20504;-78
2022/11/11 08:22:40;;;;;;;5.65;2.15;;;8.70;99.90;;;;;;4934214;28;20592;-77
2022/11/11 08:25:07;;;;;;;4.50;2.15;;;8.70;99.90;;;;;;4951148;28;20026;-78
2022/11/11 08:27:33;;;;;;;5.43;2.03;;;8.80;99.90;;;;;;4949733;28;20037;-78
2022/11/11 08:29:59;;;;;;;7.05;2.15;;;8.90;99.90;;;;;;4946859;28;20117;-78
2022/11/11 08:32:24;;;;;;;7.88;2.28;;;9.00;99.90;;;;;;4963750;28;20134;-78
2022/11/11 08:34:50;;;;;;;9.65;2.80;;;9.00;99.90;;;;;;4957168;28;20042;-78
2022/11/11 08:37:15;;;;;;;8.32;2.38;;;9.10;99.90;;;;;;4930242;28;20027;-78
2022/11/11 08:39:41;;;;;;;2.88;1.60;;;9.20;99.90;;;;;;4962795;28;20463;-78
2022/11/11 08:42:06;;;;;;;5.90;2.63;;;9.20;99.90;;;;;;4950568;28;20030;-78
2022/11/11 08:44:32;;;;;;;6.47;2.05;;;9.30;99.90;;;;;;4950803;28;20707;-78
2022/11/11 08:46:57;;;;;;;4.25;1.80;;;9.40;99.90;;;;;;4958144;28;22027;-78
2022/11/11 08:49:23;;;;;;;6.22;1.88;;;9.50;99.90;;;;;;4926666;28;20039;-77
2022/11/11 08:51:48;;;;;;;4.88;1.88;;;9.60;99.90;;;;;;4943628;28;20038;-78
2022/11/11 08:54:14;;;;;;;5.25;2.20;;;9.70;99.90;;;;;;4947194;28;20037;-77
2022/11/11 08:56:39;;;;;;;4.88;1.70;;;9.80;99.90;;;;;;4963642;28;20507;-78
2022/11/11 08:59:05;;;;;;;4.38;1.65;;;9.90;99.90;;;;;;4955125;28;20394;-77
2022/11/11 09:01:31;;;;;;;5.60;2.20;;;10.00;99.90;;;;;;4951715;28;20028;-77
2022/11/11 09:03:56;;;;;;;2.40;1.65;;;10.20;99.90;;;;;;4978299;28;20038;-77
2022/11/11 09:06:24;;;;;;;3.28;1.50;;;10.30;99.90;;;;;;4968614;28;20114;-77
2022/11/11 09:08:49;;;;;;;5.90;1.90;;;10.40;99.90;;;;;;4957798;28;20046;-77
2022/11/11 09:11:15;;;;;;;2.20;1.33;;;10.50;99.90;;;;;;4968647;28;20426;-77
2022/11/11 09:13:41;;;;;;;7.38;1.75;;;10.60;99.90;;;;;;4963450;28;20042;-78
2022/11/11 09:16:07;;;;;;;2.05;1.02;;;10.60;99.90;;;;;;4955461;28;20492;-77
2022/11/11 09:18:32;;;;;;;5.85;1.83;;;10.80;99.90;;;;;;4968385;28;20069;-78
2022/11/11 09:21:01;;;;;;;4.72;1.77;;;10.90;99.90;;;;;;4980595;28;20027;-78
2022/11/11 09:23:26;;;;;;;4.43;1.33;;;11.10;99.90;;;;;;4968460;28;20037;-77
2022/11/11 09:25:52;;;;;;;2.38;1.17;;;11.30;99.90;;;;;;4936528;28;20157;-78
2022/11/11 09:28:17;;;;;;;4.32;1.33;;;11.50;99.90;;;;;;4967168;28;20034;-78
2022/11/11 09:30:43;;;;;;;6.63;1.70;;;11.50;99.90;;;;;;4620061;28;9999873;-77
2022/11/11 09:33:11;;;;;;;3.33;1.73;;;11.70;99.90;;;;;;4930037;28;20427;-77
2022/11/11 09:35:36;;;;;;;6.07;1.30;;;11.80;99.90;;;;;;4950795;28;20038;-79
2022/11/11 09:38:02;;;;;;;2.85;1.42;;;12.00;99.90;;;;;;4949176;28;20405;-78
2022/11/11 09:41:01;;;;;;;4.80;1.38;;;12.10;99.90;;;;;;4952246;28;20034;-79
2022/11/11 09:43:49;;;;;;;4.32;1.67;;;12.20;99.90;;;;;;4962977;28;20126;-78
2022/11/11 09:46:29;;;;;;;5.15;1.50;;;12.30;99.90;;;;;;4945427;28;20074;-78
2022/11/11 09:49:16;;;;;;;3.83;1.25;;;12.60;99.90;;;;;;4959477;28;20446;-78
2022/11/11 09:51:52;;;;;;;2.25;1.63;;;12.60;99.90;;;;;;4938376;28;20336;-77
2022/11/11 09:54:29;;;;;;;2.65;1.33;;;12.70;99.90;;;;;;4948329;28;20053;-78
2022/11/11 09:56:54;;;;;;;1.63;1.10;;;12.90;99.90;;;;;;4949409;28;20050;-77
2022/11/11 09:59:24;;;;;;;3.90;1.40;;;13.00;99.90;;;;;;4955077;28;20557;-78
2022/11/11 10:01:54;;;;;;;4.22;2.00;;;13.10;99.90;;;;;;4950831;28;20067;-78
2022/11/11 10:04:27;;;;;;;3.20;1.17;;;13.20;99.90;;;;;;4975028;28;20081;-78
2022/11/11 10:06:56;;;;;;;1.58;0.70;;;13.30;99.90;;;;;;4946113;28;20047;-78
2022/11/11 10:09:32;;;;;;;1.85;0.90;;;13.40;99.90;;;;;;4981312;28;20455;-78
2022/11/11 10:12:09;;;;;;;2.17;1.02;;;13.60;99.90;;;;;;4937941;28;20030;-78
2022/11/11 10:14:37;;;;;;;2.58;1.02;;;13.60;99.90;;;;;;4961978;28;20109;-78
2022/11/11 10:17:27;;;;;;;1.40;1.00;;;13.70;99.90;;;;;;4933812;28;20060;-79
2022/11/11 10:20:28;;;;;;;3.58;1.13;;;13.80;99.90;;;;;;4965076;28;20031;-78
2022/11/11 10:23:02;;;;;;;3.55;0.70;;;13.90;99.90;;;;;;4953998;28;20694;-78
2022/11/11 10:25:27;;;;;;;6.25;1.15;;;14.00;99.90;;;;;;4948744;28;20114;-78
2022/11/11 10:27:59;;;;;;;1.73;0.90;;;14.10;99.90;;;;;;4968515;28;20118;-78
2022/11/11 10:30:27;;;;;;;1.70;0.50;;;14.00;99.90;;;;;;4939460;28;20054;-78
2022/11/11 10:33:03;;;;;;;2.92;1.10;;;14.10;99.90;;;;;;4951989;28;20126;-79
2022/11/11 10:35:31;;;;;;;3.33;1.42;;;14.30;99.90;;;;;;4936051;28;20031;-76
2022/11/11 10:38:08;;;;;;;5.55;1.42;;;14.50;99.90;;;;;;4932217;28;20125;-76
2022/11/11 10:40:40;;;;;;;2.88;1.10;;;14.60;99.90;;;;;;4938829;28;20493;-76
2022/11/11 10:43:16;;;;;;;3.08;0.77;;;14.70;99.90;;;;;;4953319;28;20487;-76
2022/11/11 10:45:46;;;;;;;2.35;0.65;;;14.80;99.90;;;;;;4980929;28;20035;-75
2022/11/11 10:48:14;;;;;;;3.70;1.42;;;15.00;99.90;;;;;;4932735;28;20039;-76
2022/11/11 10:50:42;;;;;;;8.93;1.30;;;15.10;99.90;;;;;;4965858;28;20046;-76
2022/11/11 10:53:21;;;;;;;7.35;1.80;;;15.10;99.90;;;;;;4933875;28;20030;-76
2022/11/11 10:55:53;;;;;;;2.67;1.25;;;15.00;99.90;;;;;;4972020;28;20035;-79
2022/11/11 10:58:46;;;;;;;2.03;1.00;;;15.20;99.90;;;;;;4936051;28;20035;-78
2022/11/11 11:01:15;;;;;;;1.65;1.00;;;15.30;99.90;;;;;;4951006;28;20034;-78
2022/11/11 11:03:42;;;;;;;2.53;1.23;;;15.40;99.90;;;;;;4939107;28;20097;-78
2022/11/11 11:06:20;;;;;;;1.77;0.93;;;15.50;99.90;;;;;;4950285;28;20398;-78
2022/11/11 11:08:53;;;;;;;6.13;2.40;;;15.60;99.90;;;;;;4976235;28;20039;-79
2022/11/11 11:11:25;;;;;;;2.90;0.90;;;15.20;99.90;;;;;;4967617;28;20050;-80
2022/11/11 11:13:52;;;;;;;0.90;0.70;;;15.50;99.90;;;;;;4945974;28;20514;-79
2022/11/11 11:16:28;;;;;;;1.83;0.95;;;15.50;99.90;;;;;;4964410;28;20081;-79
2022/11/11 11:19:11;;;;;;;;;;;15.70;99.90;;;;;;4964348;28;20043;-79
2022/11/11 11:21:56;;;;;;;1.10;0.80;;;15.70;99.90;;;;;;4965411;28;19914;-79
2022/11/11 11:24:28;;;;;;;1.52;0.82;;;16.00;99.90;;;;;;4949689;28;20042;-79
2022/11/11 11:26:55;;;;;;;1.48;0.70;;;16.00;99.90;;;;;;4968075;28;20419;-79
2022/11/11 11:29:31;;;;;;;2.00;1.17;;;16.20;99.80;;;;;;4949775;28;20038;-79
2022/11/11 11:32:17;;;;;;;1.80;0.77;;;16.40;99.00;;;;;;4965464;28;20181;-79
2022/11/11 11:34:47;;;;;;;3.70;0.88;;;16.40;98.70;;;;;;4971810;28;20039;-79
2022/11/11 11:37:13;;;;;;;4.13;1.15;;;16.60;99.00;;;;;;4955815;28;20082;-79
2022/11/11 11:39:38;;;;;;;1.33;0.60;;;16.80;99.00;;;;;;4950243;28;20118;-79
2022/11/11 11:42:06;;;;;;;1.35;0.73;;;17.10;97.60;;;;;;4950758;28;20027;-81
2022/11/11 11:44:36;;;;;;;2.33;0.90;;;16.90;98.40;;;;;;4955314;28;20031;-79
2022/11/11 11:47:09;;;;;;;1.30;0.65;;;17.00;98.60;;;;;;4953450;28;20129;-80
2022/11/11 11:50:01;;;;;;;2.70;0.70;;;17.30;97.10;;;;;;4957564;28;20394;-79
2022/11/11 11:52:36;;;;;;;0.80;0.68;;;17.00;97.70;;;;;;4981029;28;20027;-80
2022/11/11 11:55:14;;;;;;;3.38;1.10;;;17.30;97.10;;;;;;4621117;28;9999845;-80
2022/11/11 11:57:55;;;;;;;1.98;0.85;;;17.40;97.30;;;;;;4950403;28;20030;-80
2022/11/11 12:00:24;;;;;;;3.40;0.93;;;17.10;97.90;;;;;;4957294;28;20032;-80
2022/11/11 12:03:27;;;;;;;3.30;0.90;;;17.50;96.60;;;;;;4934635;28;20038;-80
2022/11/11 12:06:23;;;;;;;2.30;0.95;;;17.20;97.60;;;;;;4954863;28;20048;-80
2022/11/11 12:09:17;;;;;;;4.40;1.00;;;17.00;98.50;;;;;;4950741;28;20062;-80
2022/11/11 12:11:58;;;;;;;3.55;0.88;;;16.90;98.80;;;;;;4945938;28;20035;-80
2022/11/11 12:14:42;;;;;;;1.00;0.70;;;17.10;98.20;;;;;;4949545;28;20030;-80
2022/11/11 12:17:35;;;;;;;4.20;1.00;;;17.30;98.00;;;;;;4951650;28;20030;-80
2022/11/11 12:20:06;;;;;;;0.90;0.60;;;17.30;97.70;;;;;;4952583;28;20494;-80
2022/11/11 12:23:01;;;;;;;1.60;0.82;;;17.10;98.00;;;;;;4978620;28;20359;-80
2022/11/11 12:25:45;;;;;;;2.53;0.70;;;17.10;97.20;;;;;;4931636;28;20051;-82
2022/11/11 12:28:14;;;;;;;1.77;0.80;;;16.90;98.30;;;;;;4967574;28;20486;-78
2022/11/11 12:30:43;;;;;;;2.40;0.80;;;17.10;97.70;;;;;;4961064;28;20141;-78
2022/11/11 12:33:39;;;;;;;3.00;0.95;;;17.00;98.30;;;;;;4938265;28;20121;-78
2022/11/11 12:36:15;;;;;;;2.20;0.70;;;17.10;97.90;;;;;;4975709;28;20030;-77
2022/11/11 12:39:22;;;;;;;2.97;1.27;;;16.90;97.10;;;;;;4952313;28;20262;-78
2022/11/11 12:42:24;;;;;;;1.30;0.90;;;17.10;97.20;;;;;;4951756;28;20035;-78
2022/11/11 12:45:01;;;;;;;2.92;1.00;;;17.10;97.50;;;;;;4950398;28;20122;-80
2022/11/11 12:47:36;;;;;;;2.25;0.82;;;16.90;98.20;;;;;;4947079;28;20810;-78
2022/11/11 12:50:21;;;;;;;2.90;0.90;;;16.60;99.00;;;;;;4950591;28;20038;-78
2022/11/11 12:52:53;;;;;;;1.80;0.98;;;17.10;97.90;;;;;;4945126;28;20039;-78
2022/11/11 12:55:21;;;;;;;3.83;1.15;;;17.30;97.00;;;;;;4945781;28;20041;-78
2022/11/11 12:58:02;;;;;;;2.70;0.90;;;17.30;97.40;;;;;;4966292;28;20565;-78
2022/11/11 13:00:28;;;;;;;1.58;1.27;;;17.00;98.30;;;;;;4946717;28;20057;-80
2022/11/11 13:03:12;;;;;;;2.15;0.90;;;17.10;98.40;;;;;;4967982;28;20042;-80
2022/11/11 13:05:44;;;;;;;4.15;1.17;;;17.10;97.40;;;;;;4954450;28;20057;-80
2022/11/11 13:08:38;;;;;;;3.10;1.10;;;17.20;96.60;;;;;;4943602;28;20434;-77
2022/11/11 13:11:19;;;;;;;2.00;1.20;;;17.10;97.60;;;;;;4952561;28;20043;-77
2022/11/11 13:13:56;;;;;;;1.55;0.68;;;17.30;96.60;;;;;;4947530;28;20035;-79
2022/11/11 13:16:23;;;;;;;2.25;1.20;;;17.40;95.40;;;;;;4954812;28;20022;-78
2022/11/11 13:18:58;;;;;;;3.65;1.20;;;17.30;96.60;;;;;;4961114;28;20439;-78
2022/11/11 13:21:50;;;;;;;2.28;1.00;;;17.60;96.10;;;;;;4961219;28;20090;-79
2022/11/11 13:24:19;;;;;;;1.77;0.90;;;17.60;97.10;;;;;;4934893;28;20034;-79
2022/11/11 13:27:14;;;;;;;1.45;0.90;;;17.40;96.90;;;;;;4952506;28;20039;-78
2022/11/11 13:30:12;;;;;;;1.73;1.05;;;17.30;96.70;;;;;;4955829;28;20035;-78
2022/11/11 13:32:42;;;;;;;2.97;1.45;;;17.40;96.10;;;;;;4969195;28;20038;-80
2022/11/11 13:35:35;;;;;;;5.22;1.13;;;17.70;95.70;;;;;;4932767;28;20517;-80
2022/11/11 13:38:01;;;;;;;2.97;0.90;;;17.50;97.30;;;;;;4943579;28;20545;-80
2022/11/11 13:40:39;;;;;;;1.92;0.90;;;17.30;97.20;;;;;;4971622;28;20118;-80
2022/11/11 13:43:12;;;;;;;1.20;1.00;;;17.30;97.10;;;;;;4945505;28;20038;-79
2022/11/11 13:45:40;;;;;;;1.73;0.70;;;17.40;97.50;;;;;;4983254;28;20031;-80
2022/11/11 13:48:05;;;;;;;2.83;0.60;;;17.50;96.00;;;;;;4959334;28;20747;-79
2022/11/11 13:50:32;;;;;;;1.63;0.57;;;17.40;97.20;;;;;;4965031;28;20032;-79
2022/11/11 13:53:04;;;;;;;3.60;1.25;;;17.30;97.20;;;;;;4972940;28;20426;-80
2022/11/11 13:55:44;;;;;;;1.17;0.70;;;17.50;96.10;;;;;;4951782;28;20027;-80
2022/11/11 13:58:34;;;;;;;3.47;0.68;;;17.40;96.80;;;;;;4966884;28;20038;-80
2022/11/11 14:01:01;;;;;;;2.33;0.82;;;17.20;97.50;;;;;;4951200;28;20038;-80
2022/11/11 14:03:28;;;;;;;1.42;0.90;;;17.30;96.80;;;;;;4972575;28;20042;-80
2022/11/11 14:06:15;;;;;;;2.90;0.90;;;17.10;98.00;;;;;;4952441;28;20046;-80
2022/11/11 14:08:49;;;;;;;1.88;0.90;;;17.20;97.50;;;;;;4945500;28;20565;-81
2022/11/11 14:11:33;;;;;;;1.17;0.77;;;17.20;97.80;;;;;;4957494;28;20117;-80
2022/11/11 14:14:31;;;;;;;1.77;0.70;;;17.10;97.40;;;;;;4942433;28;20077;-80
2022/11/11 14:16:59;;;;;;;0.82;0.65;;;17.00;98.10;;;;;;4967715;28;20122;-80
2022/11/11 14:19:24;;;;;;;3.35;0.90;;;17.00;98.10;;;;;;4968918;28;20024;-80
2022/11/11 14:22:28;;;;;;;2.13;1.13;;;17.00;97.80;;;;;;4960435;28;20398;-80
2022/11/11 14:24:54;;;;;;;5.03;1.27;;;17.00;97.90;;;;;;4966482;28;20035;-80